New Lisbon, Indiana
Current Conditions -  °F | °C
As of 6:53 AM on Thursday 29 Jan 2015 (Local Time) from KMIE Reporting Station
Clear Clear  
Wind Chill: -2°   Ceiling: Unl
Heat Index:   Visibility: 10mi
Dew Point: -2°   Wind: 15mph
Humidity: 68%   Direction: 200°SSW
Pressure: 29.77"   Gusts: 24mph
Location:  39.86°N, 85.26°W
Report Text: KMIE 291153Z AUTO 20013G21KT 10SM CLR 03/M02 A2977 RMK AO2 PK WND 19028/1055 SLP086 60000 T00331022 10039 20006 56028
Loading
Personal Weather Stations






























Interactive Weather Map New forecast layout! Learn more

10-Day Weather Forecast

Advertisements
Track Severe Weather on mobile